sensor_id;sensor_type;location;lat;lon;timestamp;P1;durP1;ratioP1;P2;durP2;ratioP2
64986;SDS011;67903;52.108;9.358;2023-05-16T00:02:05;12.23;;;9.25;;
64986;SDS011;67903;52.108;9.358;2023-05-16T00:04:52;9.85;;;8.80;;
64986;SDS011;67903;52.108;9.358;2023-05-16T00:07:41;11.85;;;9.57;;
64986;SDS011;67903;52.108;9.358;2023-05-16T00:10:29;9.75;;;8.80;;
64986;SDS011;67903;52.108;9.358;2023-05-16T00:13:16;10.57;;;9.32;;
64986;SDS011;67903;52.108;9.358;2023-05-16T00:16:07;12.20;;;10.32;;
64986;SDS011;67903;52.108;9.358;2023-05-16T00:18:55;10.68;;;9.68;;
64986;SDS011;67903;52.108;9.358;2023-05-16T00:21:46;10.93;;;9.82;;
64986;SDS011;67903;52.108;9.358;2023-05-16T00:24:33;10.82;;;9.57;;
64986;SDS011;67903;52.108;9.358;2023-05-16T00:27:20;11.60;;;10.40;;
64986;SDS011;67903;52.108;9.358;2023-05-16T00:30:08;13.10;;;9.88;;
64986;SDS011;67903;52.108;9.358;2023-05-16T00:32:55;12.52;;;10.43;;
64986;SDS011;67903;52.108;9.358;2023-05-16T00:35:42;12.40;;;10.38;;
64986;SDS011;67903;52.108;9.358;2023-05-16T00:38:30;10.93;;;9.82;;
64986;SDS011;67903;52.108;9.358;2023-05-16T00:41:18;9.85;;;8.48;;
64986;SDS011;67903;52.108;9.358;2023-05-16T00:44:05;10.48;;;8.82;;
64986;SDS011;67903;52.108;9.358;2023-05-16T00:46:53;9.93;;;8.13;;
64986;SDS011;67903;52.108;9.358;2023-05-16T00:49:40;8.43;;;7.45;;
64986;SDS011;67903;52.108;9.358;2023-05-16T00:52:27;8.65;;;6.95;;
64986;SDS011;67903;52.108;9.358;2023-05-16T00:55:15;7.40;;;6.70;;
64986;SDS011;67903;52.108;9.358;2023-05-16T00:58:02;9.52;;;7.28;;
64986;SDS011;67903;52.108;9.358;2023-05-16T01:00:51;6.97;;;6.35;;
64986;SDS011;67903;52.108;9.358;2023-05-16T01:03:38;8.50;;;7.07;;
64986;SDS011;67903;52.108;9.358;2023-05-16T01:06:26;9.25;;;6.85;;
64986;SDS011;67903;52.108;9.358;2023-05-16T01:09:13;7.97;;;7.18;;
64986;SDS011;67903;52.108;9.358;2023-05-16T01:15:17;9.07;;;7.38;;
64986;SDS011;67903;52.108;9.358;2023-05-16T01:18:15;8.68;;;7.65;;
64986;SDS011;67903;52.108;9.358;2023-05-16T01:21:15;8.68;;;7.88;;
64986;SDS011;67903;52.108;9.358;2023-05-16T01:27:16;9.85;;;8.63;;
64986;SDS011;67903;52.108;9.358;2023-05-16T01:30:13;8.95;;;7.55;;
64986;SDS011;67903;52.108;9.358;2023-05-16T01:33:04;8.93;;;8.02;;
64986;SDS011;67903;52.108;9.358;2023-05-16T01:35:54;9.55;;;8.15;;
64986;SDS011;67903;52.108;9.358;2023-05-16T01:38:55;9.75;;;8.20;;
64986;SDS011;67903;52.108;9.358;2023-05-16T01:45:25;9.88;;;8.40;;
64986;SDS011;67903;52.108;9.358;2023-05-16T01:48:09;9.55;;;7.72;;
64986;SDS011;67903;52.108;9.358;2023-05-16T01:51:00;8.75;;;7.57;;
64986;SDS011;67903;52.108;9.358;2023-05-16T01:53:49;9.77;;;8.48;;
64986;SDS011;67903;52.108;9.358;2023-05-16T01:56:38;9.38;;;8.50;;
64986;SDS011;67903;52.108;9.358;2023-05-16T01:59:27;9.43;;;7.65;;
64986;SDS011;67903;52.108;9.358;2023-05-16T02:02:18;9.55;;;7.25;;
64986;SDS011;67903;52.108;9.358;2023-05-16T02:05:06;7.78;;;7.05;;
64986;SDS011;67903;52.108;9.358;2023-05-16T02:07:55;8.45;;;6.57;;
64986;SDS011;67903;52.108;9.358;2023-05-16T02:10:42;7.20;;;5.82;;
64986;SDS011;67903;52.108;9.358;2023-05-16T02:13:29;6.63;;;5.28;;
64986;SDS011;67903;52.108;9.358;2023-05-16T02:16:21;6.20;;;5.60;;
64986;SDS011;67903;52.108;9.358;2023-05-16T02:19:09;5.22;;;4.50;;
64986;SDS011;67903;52.108;9.358;2023-05-16T02:21:57;5.47;;;4.97;;
64986;SDS011;67903;52.108;9.358;2023-05-16T02:24:44;5.47;;;4.90;;
64986;SDS011;67903;52.108;9.358;2023-05-16T02:27:31;5.47;;;4.57;;
64986;SDS011;67903;52.108;9.358;2023-05-16T02:30:18;5.70;;;5.20;;
64986;SDS011;67903;52.108;9.358;2023-05-16T02:33:05;7.25;;;5.22;;
64986;SDS011;67903;52.108;9.358;2023-05-16T02:35:53;7.57;;;5.57;;
64986;SDS011;67903;52.108;9.358;2023-05-16T02:38:40;5.60;;;5.05;;
64986;SDS011;67903;52.108;9.358;2023-05-16T02:41:27;6.38;;;5.22;;
64986;SDS011;67903;52.108;9.358;2023-05-16T02:44:14;5.55;;;4.97;;
64986;SDS011;67903;52.108;9.358;2023-05-16T02:47:01;4.97;;;4.40;;
64986;SDS011;67903;52.108;9.358;2023-05-16T02:49:48;4.72;;;4.30;;
64986;SDS011;67903;52.108;9.358;2023-05-16T02:52:37;4.47;;;3.20;;
64986;SDS011;67903;52.108;9.358;2023-05-16T02:55:25;5.03;;;2.92;;
64986;SDS011;67903;52.108;9.358;2023-05-16T02:58:13;3.72;;;2.67;;
64986;SDS011;67903;52.108;9.358;2023-05-16T03:01:00;4.00;;;2.30;;
64986;SDS011;67903;52.108;9.358;2023-05-16T03:03:47;4.43;;;2.28;;
64986;SDS011;67903;52.108;9.358;2023-05-16T03:06:34;3.63;;;2.30;;
64986;SDS011;67903;52.108;9.358;2023-05-16T03:09:21;3.55;;;2.55;;
64986;SDS011;67903;52.108;9.358;2023-05-16T03:12:08;3.72;;;2.42;;
64986;SDS011;67903;52.108;9.358;2023-05-16T03:14:56;4.90;;;2.53;;
64986;SDS011;67903;52.108;9.358;2023-05-16T03:17:43;3.55;;;2.65;;
64986;SDS011;67903;52.108;9.358;2023-05-16T03:20:30;4.40;;;2.65;;
64986;SDS011;67903;52.108;9.358;2023-05-16T03:23:18;5.20;;;2.63;;
64986;SDS011;67903;52.108;9.358;2023-05-16T03:26:05;4.50;;;2.50;;
64986;SDS011;67903;52.108;9.358;2023-05-16T03:28:53;5.82;;;2.30;;
64986;SDS011;67903;52.108;9.358;2023-05-16T03:31:40;4.18;;;2.35;;
64986;SDS011;67903;52.108;9.358;2023-05-16T03:34:27;5.47;;;2.80;;
64986;SDS011;67903;52.108;9.358;2023-05-16T03:37:14;3.35;;;2.58;;
64986;SDS011;67903;52.108;9.358;2023-05-16T03:40:02;7.13;;;2.92;;
64986;SDS011;67903;52.108;9.358;2023-05-16T03:42:52;7.55;;;2.67;;
64986;SDS011;67903;52.108;9.358;2023-05-16T03:45:39;3.95;;;2.80;;
64986;SDS011;67903;52.108;9.358;2023-05-16T03:48:27;5.80;;;3.00;;
64986;SDS011;67903;52.108;9.358;2023-05-16T03:51:14;4.90;;;2.97;;
64986;SDS011;67903;52.108;9.358;2023-05-16T03:54:01;8.93;;;3.30;;
64986;SDS011;67903;52.108;9.358;2023-05-16T03:56:48;5.57;;;3.38;;
64986;SDS011;67903;52.108;9.358;2023-05-16T03:59:35;6.32;;;3.42;;
64986;SDS011;67903;52.108;9.358;2023-05-16T04:02:22;4.20;;;3.28;;
64986;SDS011;67903;52.108;9.358;2023-05-16T04:05:10;4.72;;;3.10;;
64986;SDS011;67903;52.108;9.358;2023-05-16T04:07:58;8.00;;;3.45;;
64986;SDS011;67903;52.108;9.358;2023-05-16T04:10:45;6.65;;;3.28;;
64986;SDS011;67903;52.108;9.358;2023-05-16T04:13:32;25.58;;;13.88;;
64986;SDS011;67903;52.108;9.358;2023-05-16T04:16:20;13.00;;;7.28;;
64986;SDS011;67903;52.108;9.358;2023-05-16T04:19:07;8.40;;;3.90;;
64986;SDS011;67903;52.108;9.358;2023-05-16T04:21:54;14.63;;;5.82;;
64986;SDS011;67903;52.108;9.358;2023-05-16T04:24:41;7.32;;;2.45;;
64986;SDS011;67903;52.108;9.358;2023-05-16T04:27:28;8.27;;;2.58;;
64986;SDS011;67903;52.108;9.358;2023-05-16T04:30:16;43.55;;;19.88;;
64986;SDS011;67903;52.108;9.358;2023-05-16T04:33:03;9.52;;;3.30;;
64986;SDS011;67903;52.108;9.358;2023-05-16T04:35:50;8.85;;;2.53;;
64986;SDS011;67903;52.108;9.358;2023-05-16T04:38:38;7.35;;;2.67;;
64986;SDS011;67903;52.108;9.358;2023-05-16T04:41:25;10.88;;;2.72;;
64986;SDS011;67903;52.108;9.358;2023-05-16T04:44:12;8.90;;;2.90;;
64986;SDS011;67903;52.108;9.358;2023-05-16T04:47:00;10.18;;;2.47;;
64986;SDS011;67903;52.108;9.358;2023-05-16T04:49:47;5.30;;;2.30;;
64986;SDS011;67903;52.108;9.358;2023-05-16T04:52:34;5.72;;;2.10;;
64986;SDS011;67903;52.108;9.358;2023-05-16T04:55:21;9.88;;;2.95;;
64986;SDS011;67903;52.108;9.358;2023-05-16T04:58:08;10.07;;;3.03;;
64986;SDS011;67903;52.108;9.358;2023-05-16T05:00:55;10.85;;;3.00;;
64986;SDS011;67903;52.108;9.358;2023-05-16T05:03:43;9.18;;;2.97;;
64986;SDS011;67903;52.108;9.358;2023-05-16T05:06:34;7.47;;;3.20;;
64986;SDS011;67903;52.108;9.358;2023-05-16T05:09:21;6.65;;;2.78;;
64986;SDS011;67903;52.108;9.358;2023-05-16T05:12:08;7.53;;;2.60;;
64986;SDS011;67903;52.108;9.358;2023-05-16T05:14:55;7.88;;;2.30;;
64986;SDS011;67903;52.108;9.358;2023-05-16T05:17:42;8.75;;;3.05;;
64986;SDS011;67903;52.108;9.358;2023-05-16T05:20:29;9.43;;;2.80;;
64986;SDS011;67903;52.108;9.358;2023-05-16T05:23:16;12.82;;;3.45;;
64986;SDS011;67903;52.108;9.358;2023-05-16T05:26:03;5.30;;;2.90;;
64986;SDS011;67903;52.108;9.358;2023-05-16T05:28:51;8.88;;;2.95;;
64986;SDS011;67903;52.108;9.358;2023-05-16T05:31:51;9.20;;;3.72;;
64986;SDS011;67903;52.108;9.358;2023-05-16T05:34:38;11.38;;;2.95;;
64986;SDS011;67903;52.108;9.358;2023-05-16T05:37:25;8.98;;;2.55;;
64986;SDS011;67903;52.108;9.358;2023-05-16T05:40:12;11.57;;;2.75;;
64986;SDS011;67903;52.108;9.358;2023-05-16T05:42:59;8.70;;;2.50;;
64986;SDS011;67903;52.108;9.358;2023-05-16T05:45:46;9.80;;;2.92;;
64986;SDS011;67903;52.108;9.358;2023-05-16T05:48:35;6.85;;;2.30;;
64986;SDS011;67903;52.108;9.358;2023-05-16T05:51:22;7.88;;;2.67;;
64986;SDS011;67903;52.108;9.358;2023-05-16T05:54:09;5.18;;;2.28;;
64986;SDS011;67903;52.108;9.358;2023-05-16T05:56:56;8.98;;;2.28;;
64986;SDS011;67903;52.108;9.358;2023-05-16T05:59:43;9.98;;;2.53;;
64986;SDS011;67903;52.108;9.358;2023-05-16T06:02:30;7.93;;;2.58;;
64986;SDS011;67903;52.108;9.358;2023-05-16T06:05:18;8.77;;;2.47;;
64986;SDS011;67903;52.108;9.358;2023-05-16T06:08:05;10.57;;;1.88;;
64986;SDS011;67903;52.108;9.358;2023-05-16T06:10:52;9.48;;;2.20;;
64986;SDS011;67903;52.108;9.358;2023-05-16T06:13:39;9.07;;;2.10;;
64986;SDS011;67903;52.108;9.358;2023-05-16T06:16:26;10.65;;;2.65;;
64986;SDS011;67903;52.108;9.358;2023-05-16T06:19:14;7.10;;;2.13;;
64986;SDS011;67903;52.108;9.358;2023-05-16T06:22:02;8.25;;;2.55;;
64986;SDS011;67903;52.108;9.358;2023-05-16T06:24:49;9.60;;;2.33;;
64986;SDS011;67903;52.108;9.358;2023-05-16T06:27:36;10.10;;;2.17;;
64986;SDS011;67903;52.108;9.358;2023-05-16T06:30:23;9.93;;;2.58;;
64986;SDS011;67903;52.108;9.358;2023-05-16T06:33:10;10.07;;;2.65;;
64986;SDS011;67903;52.108;9.358;2023-05-16T06:35:57;7.55;;;2.05;;
64986;SDS011;67903;52.108;9.358;2023-05-16T06:38:45;8.32;;;2.25;;
64986;SDS011;67903;52.108;9.358;2023-05-16T06:41:32;10.48;;;2.60;;
64986;SDS011;67903;52.108;9.358;2023-05-16T06:44:20;10.00;;;2.08;;
64986;SDS011;67903;52.108;9.358;2023-05-16T06:47:08;8.98;;;2.60;;
64986;SDS011;67903;52.108;9.358;2023-05-16T06:49:55;6.10;;;2.20;;
64986;SDS011;67903;52.108;9.358;2023-05-16T06:52:42;7.88;;;2.20;;
64986;SDS011;67903;52.108;9.358;2023-05-16T06:55:29;11.25;;;2.45;;
64986;SDS011;67903;52.108;9.358;2023-05-16T06:58:17;10.05;;;2.13;;
64986;SDS011;67903;52.108;9.358;2023-05-16T07:01:04;6.25;;;2.25;;
64986;SDS011;67903;52.108;9.358;2023-05-16T07:03:51;5.63;;;2.90;;
64986;SDS011;67903;52.108;9.358;2023-05-16T07:06:39;5.93;;;1.90;;
64986;SDS011;67903;52.108;9.358;2023-05-16T07:09:26;9.68;;;2.28;;
64986;SDS011;67903;52.108;9.358;2023-05-16T07:12:13;6.95;;;2.33;;
64986;SDS011;67903;52.108;9.358;2023-05-16T07:15:00;7.38;;;2.13;;
64986;SDS011;67903;52.108;9.358;2023-05-16T07:17:47;8.93;;;2.08;;
64986;SDS011;67903;52.108;9.358;2023-05-16T07:20:36;5.75;;;1.75;;
64986;SDS011;67903;52.108;9.358;2023-05-16T07:23:23;8.45;;;2.33;;
64986;SDS011;67903;52.108;9.358;2023-05-16T07:26:10;10.23;;;1.98;;
64986;SDS011;67903;52.108;9.358;2023-05-16T07:28:57;7.32;;;2.53;;
64986;SDS011;67903;52.108;9.358;2023-05-16T07:31:45;8.32;;;1.88;;
64986;SDS011;67903;52.108;9.358;2023-05-16T07:34:32;9.65;;;2.13;;
64986;SDS011;67903;52.108;9.358;2023-05-16T07:37:19;6.35;;;2.08;;
64986;SDS011;67903;52.108;9.358;2023-05-16T07:40:06;9.13;;;2.30;;
64986;SDS011;67903;52.108;9.358;2023-05-16T07:42:56;7.75;;;2.03;;
64986;SDS011;67903;52.108;9.358;2023-05-16T07:45:43;11.68;;;2.53;;
64986;SDS011;67903;52.108;9.358;2023-05-16T07:48:31;8.63;;;2.15;;
64986;SDS011;67903;52.108;9.358;2023-05-16T07:51:18;8.07;;;1.98;;
64986;SDS011;67903;52.108;9.358;2023-05-16T07:54:05;6.35;;;1.73;;
64986;SDS011;67903;52.108;9.358;2023-05-16T07:56:52;6.60;;;2.35;;
64986;SDS011;67903;52.108;9.358;2023-05-16T07:59:40;7.82;;;2.00;;
64986;SDS011;67903;52.108;9.358;2023-05-16T08:02:27;8.10;;;2.25;;
64986;SDS011;67903;52.108;9.358;2023-05-16T08:05:16;10.65;;;2.53;;
64986;SDS011;67903;52.108;9.358;2023-05-16T08:08:04;8.48;;;2.08;;
64986;SDS011;67903;52.108;9.358;2023-05-16T08:10:51;8.48;;;2.13;;
64986;SDS011;67903;52.108;9.358;2023-05-16T08:13:38;7.00;;;1.98;;
64986;SDS011;67903;52.108;9.358;2023-05-16T08:16:25;10.00;;;2.53;;
64986;SDS011;67903;52.108;9.358;2023-05-16T08:19:15;4.80;;;1.67;;
64986;SDS011;67903;52.108;9.358;2023-05-16T08:22:05;5.88;;;1.63;;
64986;SDS011;67903;52.108;9.358;2023-05-16T08:24:53;6.93;;;1.83;;
64986;SDS011;67903;52.108;9.358;2023-05-16T08:27:43;10.40;;;2.10;;
64986;SDS011;67903;52.108;9.358;2023-05-16T08:30:31;4.60;;;2.03;;
64986;SDS011;67903;52.108;9.358;2023-05-16T08:33:18;8.18;;;2.15;;
64986;SDS011;67903;52.108;9.358;2023-05-16T08:36:06;8.25;;;2.22;;
64986;SDS011;67903;52.108;9.358;2023-05-16T08:38:54;12.73;;;2.17;;
64986;SDS011;67903;52.108;9.358;2023-05-16T08:41:41;7.65;;;1.88;;
64986;SDS011;67903;52.108;9.358;2023-05-16T08:44:29;7.15;;;1.92;;
64986;SDS011;67903;52.108;9.358;2023-05-16T08:47:17;7.95;;;1.98;;
64986;SDS011;67903;52.108;9.358;2023-05-16T08:50:08;6.03;;;1.80;;
64986;SDS011;67903;52.108;9.358;2023-05-16T08:52:56;10.38;;;1.95;;
64986;SDS011;67903;52.108;9.358;2023-05-16T08:55:43;9.18;;;1.90;;
64986;SDS011;67903;52.108;9.358;2023-05-16T08:58:33;4.85;;;2.03;;
64986;SDS011;67903;52.108;9.358;2023-05-16T09:01:22;6.25;;;1.77;;
64986;SDS011;67903;52.108;9.358;2023-05-16T09:04:09;7.93;;;2.00;;
64986;SDS011;67903;52.108;9.358;2023-05-16T09:06:57;5.75;;;1.67;;
64986;SDS011;67903;52.108;9.358;2023-05-16T09:09:44;6.82;;;1.88;;
64986;SDS011;67903;52.108;9.358;2023-05-16T09:12:32;6.30;;;1.35;;
64986;SDS011;67903;52.108;9.358;2023-05-16T09:15:20;7.22;;;2.15;;
64986;SDS011;67903;52.108;9.358;2023-05-16T09:18:10;5.47;;;1.83;;
64986;SDS011;67903;52.108;9.358;2023-05-16T09:20:59;5.53;;;1.88;;
64986;SDS011;67903;52.108;9.358;2023-05-16T09:23:50;5.55;;;1.58;;
64986;SDS011;67903;52.108;9.358;2023-05-16T09:26:37;4.68;;;1.58;;
64986;SDS011;67903;52.108;9.358;2023-05-16T09:29:25;5.20;;;1.83;;
64986;SDS011;67903;52.108;9.358;2023-05-16T09:32:14;6.38;;;1.58;;
64986;SDS011;67903;52.108;9.358;2023-05-16T09:35:02;6.50;;;1.95;;
64986;SDS011;67903;52.108;9.358;2023-05-16T09:37:50;3.15;;;1.88;;
64986;SDS011;67903;52.108;9.358;2023-05-16T09:40:40;6.18;;;1.80;;
64986;SDS011;67903;52.108;9.358;2023-05-16T09:43:27;3.42;;;1.55;;
64986;SDS011;67903;52.108;9.358;2023-05-16T09:46:15;5.45;;;2.13;;
64986;SDS011;67903;52.108;9.358;2023-05-16T09:49:02;4.32;;;2.00;;
64986;SDS011;67903;52.108;9.358;2023-05-16T09:51:50;4.25;;;1.42;;
64986;SDS011;67903;52.108;9.358;2023-05-16T09:54:37;6.03;;;1.60;;
64986;SDS011;67903;52.108;9.358;2023-05-16T09:57:25;6.57;;;1.60;;
64986;SDS011;67903;52.108;9.358;2023-05-16T10:00:16;3.47;;;1.55;;
64986;SDS011;67903;52.108;9.358;2023-05-16T10:03:03;3.65;;;1.60;;
64986;SDS011;67903;52.108;9.358;2023-05-16T10:05:52;4.45;;;1.60;;
64986;SDS011;67903;52.108;9.358;2023-05-16T10:08:41;2.95;;;1.50;;
64986;SDS011;67903;52.108;9.358;2023-05-16T10:11:29;4.57;;;1.75;;
64986;SDS011;67903;52.108;9.358;2023-05-16T10:14:17;5.43;;;1.45;;
64986;SDS011;67903;52.108;9.358;2023-05-16T10:17:07;5.18;;;1.60;;
64986;SDS011;67903;52.108;9.358;2023-05-16T10:20:05;2.83;;;1.60;;
64986;SDS011;67903;52.108;9.358;2023-05-16T10:22:54;5.20;;;1.40;;
64986;SDS011;67903;52.108;9.358;2023-05-16T10:25:42;3.92;;;1.40;;
64986;SDS011;67903;52.108;9.358;2023-05-16T10:28:31;5.57;;;1.38;;
64986;SDS011;67903;52.108;9.358;2023-05-16T10:31:18;3.75;;;1.48;;
64986;SDS011;67903;52.108;9.358;2023-05-16T10:34:06;4.68;;;2.22;;
64986;SDS011;67903;52.108;9.358;2023-05-16T10:36:54;4.38;;;1.67;;
64986;SDS011;67903;52.108;9.358;2023-05-16T10:39:41;3.95;;;1.50;;
64986;SDS011;67903;52.108;9.358;2023-05-16T10:42:30;4.45;;;1.70;;
64986;SDS011;67903;52.108;9.358;2023-05-16T10:45:18;5.07;;;1.75;;
64986;SDS011;67903;52.108;9.358;2023-05-16T10:48:06;3.90;;;1.50;;
64986;SDS011;67903;52.108;9.358;2023-05-16T10:50:56;3.97;;;1.55;;
64986;SDS011;67903;52.108;9.358;2023-05-16T10:53:43;6.53;;;1.85;;
64986;SDS011;67903;52.108;9.358;2023-05-16T10:56:32;7.93;;;1.60;;
64986;SDS011;67903;52.108;9.358;2023-05-16T10:59:23;4.88;;;1.60;;
64986;SDS011;67903;52.108;9.358;2023-05-16T11:05:12;4.75;;;1.70;;
64986;SDS011;67903;52.108;9.358;2023-05-16T11:08:05;2.47;;;1.30;;
64986;SDS011;67903;52.108;9.358;2023-05-16T11:11:23;4.22;;;1.50;;
64986;SDS011;67903;52.108;9.358;2023-05-16T11:17:24;4.25;;;1.70;;
64986;SDS011;67903;52.108;9.358;2023-05-16T11:20:26;2.78;;;1.45;;
64986;SDS011;67903;52.108;9.358;2023-05-16T11:23:21;5.78;;;1.92;;
64986;SDS011;67903;52.108;9.358;2023-05-16T11:26:09;3.85;;;1.20;;
64986;SDS011;67903;52.108;9.358;2023-05-16T11:28:56;4.00;;;1.38;;
64986;SDS011;67903;52.108;9.358;2023-05-16T11:31:45;3.25;;;1.50;;
64986;SDS011;67903;52.108;9.358;2023-05-16T11:34:34;3.17;;;1.35;;
64986;SDS011;67903;52.108;9.358;2023-05-16T11:37:25;3.67;;;1.15;;
64986;SDS011;67903;52.108;9.358;2023-05-16T11:40:12;5.97;;;1.10;;
64986;SDS011;67903;52.108;9.358;2023-05-16T11:43:00;4.15;;;1.17;;
64986;SDS011;67903;52.108;9.358;2023-05-16T11:45:55;2.45;;;1.20;;
64986;SDS011;67903;52.108;9.358;2023-05-16T11:48:42;2.67;;;1.08;;
64986;SDS011;67903;52.108;9.358;2023-05-16T11:51:32;3.70;;;1.30;;
64986;SDS011;67903;52.108;9.358;2023-05-16T11:54:20;4.30;;;1.40;;
64986;SDS011;67903;52.108;9.358;2023-05-16T11:57:08;2.30;;;1.02;;
64986;SDS011;67903;52.108;9.358;2023-05-16T11:59:55;1.52;;;1.10;;
64986;SDS011;67903;52.108;9.358;2023-05-16T12:02:49;1.15;;;0.93;;
64986;SDS011;67903;52.108;9.358;2023-05-16T12:05:37;2.58;;;1.13;;
64986;SDS011;67903;52.108;9.358;2023-05-16T12:08:25;3.83;;;1.30;;
64986;SDS011;67903;52.108;9.358;2023-05-16T12:11:12;3.72;;;1.13;;
64986;SDS011;67903;52.108;9.358;2023-05-16T12:14:01;6.28;;;1.20;;
64986;SDS011;67903;52.108;9.358;2023-05-16T12:16:49;3.05;;;1.17;;
64986;SDS011;67903;52.108;9.358;2023-05-16T12:19:38;4.18;;;1.27;;
64986;SDS011;67903;52.108;9.358;2023-05-16T12:22:25;1.17;;;0.90;;
64986;SDS011;67903;52.108;9.358;2023-05-16T12:25:25;2.95;;;1.27;;
64986;SDS011;67903;52.108;9.358;2023-05-16T12:28:13;3.15;;;1.20;;
64986;SDS011;67903;52.108;9.358;2023-05-16T12:31:01;2.58;;;1.05;;
64986;SDS011;67903;52.108;9.358;2023-05-16T12:33:51;3.60;;;1.13;;
64986;SDS011;67903;52.108;9.358;2023-05-16T12:36:40;2.50;;;1.13;;
64986;SDS011;67903;52.108;9.358;2023-05-16T12:39:35;2.33;;;1.20;;
64986;SDS011;67903;52.108;9.358;2023-05-16T12:42:25;3.03;;;1.20;;
64986;SDS011;67903;52.108;9.358;2023-05-16T12:45:13;3.47;;;1.48;;
64986;SDS011;67903;52.108;9.358;2023-05-16T12:48:10;2.67;;;1.13;;
64986;SDS011;67903;52.108;9.358;2023-05-16T12:51:15;3.45;;;1.35;;
64986;SDS011;67903;52.108;9.358;2023-05-16T12:54:08;3.78;;;1.45;;
64986;SDS011;67903;52.108;9.358;2023-05-16T12:56:57;2.65;;;1.52;;
64986;SDS011;67903;52.108;9.358;2023-05-16T12:59:44;3.28;;;1.60;;
64986;SDS011;67903;52.108;9.358;2023-05-16T13:02:31;2.80;;;1.10;;
64986;SDS011;67903;52.108;9.358;2023-05-16T13:05:18;4.53;;;1.40;;
64986;SDS011;67903;52.108;9.358;2023-05-16T13:08:08;3.13;;;1.15;;
64986;SDS011;67903;52.108;9.358;2023-05-16T13:10:56;2.83;;;1.63;;
64986;SDS011;67903;52.108;9.358;2023-05-16T13:13:43;5.95;;;1.70;;
64986;SDS011;67903;52.108;9.358;2023-05-16T13:16:30;4.90;;;1.45;;
64986;SDS011;67903;52.108;9.358;2023-05-16T13:19:18;4.13;;;1.40;;
64986;SDS011;67903;52.108;9.358;2023-05-16T13:22:05;4.18;;;1.63;;
64986;SDS011;67903;52.108;9.358;2023-05-16T13:24:53;3.22;;;1.45;;
64986;SDS011;67903;52.108;9.358;2023-05-16T13:27:40;4.00;;;1.40;;
64986;SDS011;67903;52.108;9.358;2023-05-16T13:30:27;2.30;;;1.42;;
64986;SDS011;67903;52.108;9.358;2023-05-16T13:33:16;4.32;;;1.30;;
64986;SDS011;67903;52.108;9.358;2023-05-16T13:36:03;6.13;;;1.40;;
64986;SDS011;67903;52.108;9.358;2023-05-16T13:38:53;3.80;;;1.60;;
64986;SDS011;67903;52.108;9.358;2023-05-16T13:41:42;4.03;;;1.20;;
64986;SDS011;67903;52.108;9.358;2023-05-16T13:44:30;4.50;;;1.50;;
64986;SDS011;67903;52.108;9.358;2023-05-16T13:47:17;4.05;;;1.42;;
64986;SDS011;67903;52.108;9.358;2023-05-16T13:50:05;5.03;;;1.60;;
64986;SDS011;67903;52.108;9.358;2023-05-16T13:52:55;2.47;;;1.45;;
64986;SDS011;67903;52.108;9.358;2023-05-16T13:55:42;5.20;;;1.70;;
64986;SDS011;67903;52.108;9.358;2023-05-16T13:58:30;5.45;;;1.45;;
64986;SDS011;67903;52.108;9.358;2023-05-16T14:01:17;5.55;;;1.90;;
64986;SDS011;67903;52.108;9.358;2023-05-16T14:04:04;3.08;;;1.20;;
64986;SDS011;67903;52.108;9.358;2023-05-16T14:06:51;3.03;;;1.35;;
64986;SDS011;67903;52.108;9.358;2023-05-16T14:09:40;1.95;;;1.05;;
64986;SDS011;67903;52.108;9.358;2023-05-16T14:12:27;2.72;;;1.23;;
64986;SDS011;67903;52.108;9.358;2023-05-16T14:15:14;1.45;;;1.08;;
64986;SDS011;67903;52.108;9.358;2023-05-16T14:18:01;2.42;;;1.23;;
64986;SDS011;67903;52.108;9.358;2023-05-16T14:20:50;3.95;;;1.25;;
64986;SDS011;67903;52.108;9.358;2023-05-16T14:23:39;2.40;;;1.35;;
64986;SDS011;67903;52.108;9.358;2023-05-16T14:26:26;2.10;;;1.08;;
64986;SDS011;67903;52.108;9.358;2023-05-16T14:29:13;3.42;;;1.20;;
64986;SDS011;67903;52.108;9.358;2023-05-16T14:32:01;2.53;;;1.25;;
64986;SDS011;67903;52.108;9.358;2023-05-16T14:34:48;2.30;;;1.10;;
64986;SDS011;67903;52.108;9.358;2023-05-16T14:37:35;3.28;;;1.00;;
64986;SDS011;67903;52.108;9.358;2023-05-16T14:40:22;2.17;;;0.85;;
64986;SDS011;67903;52.108;9.358;2023-05-16T14:43:10;3.08;;;1.00;;
64986;SDS011;67903;52.108;9.358;2023-05-16T14:45:57;2.25;;;1.20;;
64986;SDS011;67903;52.108;9.358;2023-05-16T14:48:44;2.38;;;1.00;;
64986;SDS011;67903;52.108;9.358;2023-05-16T14:51:34;3.85;;;1.05;;
64986;SDS011;67903;52.108;9.358;2023-05-16T14:54:21;1.45;;;1.02;;
64986;SDS011;67903;52.108;9.358;2023-05-16T14:57:08;4.15;;;1.00;;
64986;SDS011;67903;52.108;9.358;2023-05-16T14:59:55;2.38;;;1.10;;
64986;SDS011;67903;52.108;9.358;2023-05-16T15:02:42;3.40;;;1.20;;
64986;SDS011;67903;52.108;9.358;2023-05-16T15:05:30;1.80;;;0.93;;
64986;SDS011;67903;52.108;9.358;2023-05-16T15:08:17;2.70;;;1.13;;
64986;SDS011;67903;52.108;9.358;2023-05-16T15:11:05;2.75;;;1.60;;
64986;SDS011;67903;52.108;9.358;2023-05-16T15:13:52;3.67;;;1.48;;
64986;SDS011;67903;52.108;9.358;2023-05-16T15:16:39;2.75;;;1.27;;
64986;SDS011;67903;52.108;9.358;2023-05-16T15:19:26;3.80;;;1.70;;
64986;SDS011;67903;52.108;9.358;2023-05-16T15:22:14;5.00;;;1.70;;
64986;SDS011;67903;52.108;9.358;2023-05-16T15:25:01;3.50;;;1.38;;
64986;SDS011;67903;52.108;9.358;2023-05-16T15:27:51;2.97;;;1.30;;
64986;SDS011;67903;52.108;9.358;2023-05-16T15:30:38;3.65;;;1.40;;
64986;SDS011;67903;52.108;9.358;2023-05-16T15:33:25;3.60;;;1.15;;
64986;SDS011;67903;52.108;9.358;2023-05-16T15:36:12;1.70;;;1.00;;
64986;SDS011;67903;52.108;9.358;2023-05-16T15:38:59;2.50;;;1.30;;
64986;SDS011;67903;52.108;9.358;2023-05-16T15:41:46;5.65;;;2.22;;
64986;SDS011;67903;52.108;9.358;2023-05-16T15:44:53;3.30;;;0.80;;
64986;SDS011;67903;52.108;9.358;2023-05-16T15:47:41;7.18;;;1.75;;
64986;SDS011;67903;52.108;9.358;2023-05-16T15:50:28;2.80;;;1.30;;
64986;SDS011;67903;52.108;9.358;2023-05-16T15:53:15;3.92;;;1.10;;
64986;SDS011;67903;52.108;9.358;2023-05-16T15:56:02;5.78;;;3.20;;
64986;SDS011;67903;52.108;9.358;2023-05-16T15:58:49;3.50;;;1.45;;
64986;SDS011;67903;52.108;9.358;2023-05-16T16:01:36;6.75;;;4.07;;
64986;SDS011;67903;52.108;9.358;2023-05-16T16:04:23;3.83;;;1.55;;
64986;SDS011;67903;52.108;9.358;2023-05-16T16:07:11;6.97;;;4.32;;
64986;SDS011;67903;52.108;9.358;2023-05-16T16:09:58;2.85;;;1.13;;
64986;SDS011;67903;52.108;9.358;2023-05-16T16:12:56;2.70;;;1.60;;
64986;SDS011;67903;52.108;9.358;2023-05-16T16:15:45;3.05;;;1.75;;
64986;SDS011;67903;52.108;9.358;2023-05-16T16:18:32;2.83;;;1.52;;
64986;SDS011;67903;52.108;9.358;2023-05-16T16:21:20;5.65;;;1.65;;
64986;SDS011;67903;52.108;9.358;2023-05-16T16:24:09;5.68;;;2.67;;
64986;SDS011;67903;52.108;9.358;2023-05-16T16:26:56;2.28;;;0.93;;
64986;SDS011;67903;52.108;9.358;2023-05-16T16:29:43;2.72;;;1.80;;
64986;SDS011;67903;52.108;9.358;2023-05-16T16:32:31;5.53;;;1.80;;
64986;SDS011;67903;52.108;9.358;2023-05-16T16:35:18;4.45;;;1.20;;
64986;SDS011;67903;52.108;9.358;2023-05-16T16:38:05;3.17;;;1.30;;
64986;SDS011;67903;52.108;9.358;2023-05-16T16:40:53;2.22;;;1.55;;
64986;SDS011;67903;52.108;9.358;2023-05-16T16:43:40;2.40;;;1.20;;
64986;SDS011;67903;52.108;9.358;2023-05-16T16:46:27;2.72;;;1.00;;
64986;SDS011;67903;52.108;9.358;2023-05-16T16:49:15;3.25;;;1.30;;
64986;SDS011;67903;52.108;9.358;2023-05-16T16:52:02;3.30;;;1.30;;
64986;SDS011;67903;52.108;9.358;2023-05-16T16:54:49;3.60;;;1.27;;
64986;SDS011;67903;52.108;9.358;2023-05-16T16:57:36;3.28;;;1.25;;
64986;SDS011;67903;52.108;9.358;2023-05-16T17:00:24;1.83;;;1.27;;
64986;SDS011;67903;52.108;9.358;2023-05-16T17:03:11;3.72;;;1.40;;
64986;SDS011;67903;52.108;9.358;2023-05-16T17:05:58;3.83;;;1.35;;
64986;SDS011;67903;52.108;9.358;2023-05-16T17:08:45;3.25;;;1.67;;